Time;durP1;ratioP1;P1;durP2;ratioP2;P2;SDS_P1;SDS_P2;PMS_P1;PMS_P2;Temp;Humidity;BMP_temperature;BMP_pressure;BME280_temperature;BME280_humidity;BME280_pressure;Samples;Min_cycle;Max_cycle;Signal;HPM_P1;HPM_P2
2023/01/16 00:01:15;;;;;;;0.40;0.40;;;;;;;5.63;73.08;99229.81;5111736;28;20553;-81
2023/01/16 00:03:45;;;;;;;0.30;0.30;;;;;;;5.59;73.73;99221.28;5128943;28;20090;-81
2023/01/16 00:06:16;;;;;;;5.32;2.15;;;;;;;5.66;73.35;99220.19;5129193;28;20601;-81
2023/01/16 00:08:48;;;;;;;0.40;0.40;;;;;;;5.60;73.35;99209.97;5115873;28;20033;-81
2023/01/16 00:11:18;;;;;;;0.40;0.40;;;;;;;5.61;73.23;99205.63;5110495;28;20062;-81
2023/01/16 00:13:49;;;;;;;0.43;0.40;;;;;;;5.70;73.44;99202.75;5125492;28;20031;-82
2023/01/16 00:16:21;;;;;;;0.30;0.30;;;;;;;5.73;72.85;99197.41;5108525;28;20030;-81
2023/01/16 00:18:51;;;;;;;0.38;0.38;;;;;;;5.74;72.93;99195.69;5138165;28;20035;-81
2023/01/16 00:21:26;;;;;;;0.43;0.38;;;;;;;5.71;72.97;99178.41;5112822;28;20046;-81
2023/01/16 00:23:58;;;;;;;0.30;0.30;;;;;;;5.55;74.21;99175.44;5128273;28;20042;-81
2023/01/16 00:26:29;;;;;;;0.50;0.50;;;;;;;5.59;73.93;99181.41;5109682;28;20035;-82
2023/01/16 00:29:01;;;;;;;0.30;0.30;;;;;;;5.58;73.61;99179.69;5132241;28;20035;-81
2023/01/16 00:31:32;;;;;;;0.30;0.30;;;;;;;5.59;74.03;99171.84;5123805;28;20070;-82
2023/01/16 00:34:02;;;;;;;0.30;0.30;;;;;;;5.49;74.08;99171.28;5116780;28;20039;-82
2023/01/16 00:36:33;;;;;;;0.30;0.30;;;;;;;5.51;74.09;99161.69;5115205;28;20124;-82
2023/01/16 00:39:04;;;;;;;0.30;0.30;;;;;;;5.59;73.41;99160.59;5115364;28;20046;-81
2023/01/16 00:41:34;;;;;;;0.82;0.82;;;;;;;5.58;73.01;99166.69;5128395;28;20035;-80
2023/01/16 00:44:04;;;;;;;0.40;0.40;;;;;;;5.61;73.21;99153.59;5127656;28;20078;-80
2023/01/16 00:46:35;;;;;;;0.40;0.40;;;;;;;5.64;73.07;99148.28;5129168;28;20119;-82
2023/01/16 00:49:05;;;;;;;0.40;0.40;;;;;;;5.48;73.08;99142.72;5114930;28;20521;-81
2023/01/16 00:51:36;;;;;;;0.30;0.30;;;;;;;5.61;73.02;99137.97;5125806;28;20104;-81
2023/01/16 00:54:06;;;;;;;0.30;0.30;;;;;;;5.57;73.16;99136.34;5114348;28;20070;-82
2023/01/16 00:56:37;;;;;;;0.30;0.30;;;;;;;5.52;72.46;99128.69;5126625;28;20028;-81
2023/01/16 00:59:07;;;;;;;0.30;0.30;;;;;;;5.48;72.90;99122.75;5128174;28;20042;-81
2023/01/16 01:01:39;;;;;;;0.35;0.35;;;;;;;5.51;72.68;99127.00;5108693;28;20039;-81
2023/01/16 01:04:11;;;;;;;0.65;0.50;;;;;;;5.47;72.60;99115.00;5115896;28;20035;-81
2023/01/16 01:06:42;;;;;;;0.40;0.40;;;;;;;5.46;72.84;99108.94;5127620;28;20047;-81
2023/01/16 01:09:12;;;;;;;0.50;0.50;;;;;;;5.52;72.68;99113.09;5144949;28;20039;-81
2023/01/16 01:11:43;;;;;;;0.30;0.30;;;;;;;5.51;72.46;99107.06;5113446;28;20099;-81
2023/01/16 01:14:14;;;;;;;0.30;0.30;;;;;;;5.56;72.44;99095.63;5130182;28;20027;-81
2023/01/16 01:16:44;;;;;;;0.30;0.30;;;;;;;5.48;73.00;99090.69;5129803;28;20035;-81
2023/01/16 01:19:14;;;;;;;0.30;0.30;;;;;;;5.53;72.98;99083.56;5131446;28;20039;-81
2023/01/16 01:21:45;;;;;;;0.30;0.30;;;;;;;5.53;72.65;99069.72;5125158;28;20529;-81
2023/01/16 01:24:16;;;;;;;5.53;2.05;;;;;;;5.56;72.99;99065.28;5119497;28;20039;-81
2023/01/16 01:26:46;;;;;;;0.30;0.30;;;;;;;5.62;72.99;99059.84;5112554;28;20090;-81
2023/01/16 01:29:17;;;;;;;0.30;0.30;;;;;;;5.60;72.75;99051.25;5128472;28;20027;-81
2023/01/16 01:31:47;;;;;;;0.30;0.30;;;;;;;5.60;72.51;99059.06;5135017;28;20035;-81
2023/01/16 01:34:18;;;;;;;0.50;0.50;;;;;;;5.65;72.49;99051.97;5113548;28;20034;-82
2023/01/16 01:36:48;;;;;;;0.30;0.30;;;;;;;5.68;72.59;99053.59;5131533;28;20074;-81
2023/01/16 01:39:19;;;;;;;0.30;0.30;;;;;;;5.65;72.70;99051.97;5146819;28;20035;-81
2023/01/16 01:41:49;;;;;;;0.30;0.30;;;;;;;5.72;72.67;99049.16;5130715;28;20039;-82
2023/01/16 01:45:00;;;;;;;0.82;0.82;;;;;;;5.65;72.42;99038.94;5119569;28;20114;-82
2023/01/16 01:47:38;;;;;;;1.15;1.15;;;;;;;5.79;72.57;99038.44;5114893;28;20101;-82
2023/01/16 01:50:38;;;;;;;0.40;0.40;;;;;;;5.85;72.53;99034.78;5134176;28;20023;-82
2023/01/16 01:53:14;;;;;;;0.30;0.30;;;;;;;5.82;72.78;99024.50;5086414;28;20047;-82
2023/01/16 01:55:47;;;;;;;0.30;0.30;;;;;;;5.82;73.04;99017.53;5146672;28;20039;-82
2023/01/16 01:58:22;;;;;;;0.40;0.40;;;;;;;5.88;72.98;99013.88;5116840;28;20085;-82
2023/01/16 02:00:56;;;;;;;0.30;0.30;;;;;;;5.89;72.66;99005.16;5131068;28;20055;-81
2023/01/16 02:03:39;;;;;;;0.40;0.40;;;;;;;5.94;71.96;99005.84;5117464;28;20074;-81
2023/01/16 02:06:15;;;;;;;0.40;0.40;;;;;;;5.94;72.61;99000.63;5115248;28;20047;-82
2023/01/16 02:08:47;;;;;;;0.40;0.40;;;;;;;5.93;72.38;98998.94;5137430;28;20026;-81
2023/01/16 02:11:35;;;;;;;0.30;0.30;;;;;;;5.81;72.54;98981.16;5130918;28;20186;-82
2023/01/16 02:14:09;;;;;;;0.30;0.30;;;;;;;5.88;72.43;98973.97;5149188;28;20087;-84
2023/01/16 02:19:47;;;;;;;0.30;0.30;;;;;;;5.73;72.52;98957.16;5135578;28;20594;-81
2023/01/16 02:22:51;;;;;;;0.30;0.30;;;;;;;5.79;72.48;98944.75;5133907;28;20079;-81
2023/01/16 02:25:50;;;;;;;0.40;0.40;;;;;;;5.82;72.17;98943.81;5116078;28;20545;-82
2023/01/16 02:28:52;;;;;;;0.35;0.35;;;;;;;5.86;72.87;98947.16;5129317;28;20102;-81
2023/01/16 02:31:42;;;;;;;0.30;0.30;;;;;;;5.87;72.16;98938.44;5113754;28;20534;-82
2023/01/16 02:34:22;;;;;;;0.30;0.30;;;;;;;5.85;72.39;98933.28;5108152;28;20031;-80
2023/01/16 02:36:55;;;;;;;0.30;0.30;;;;;;;5.85;72.22;98925.47;5144167;28;20081;-81
2023/01/16 02:39:50;;;;;;;0.30;0.30;;;;;;;5.82;72.38;98917.81;5128241;28;20023;-81
2023/01/16 02:42:42;;;;;;;0.30;0.30;;;;;;;5.82;71.90;98917.81;5146109;28;20522;-80
2023/01/16 02:45:29;;;;;;;0.30;0.30;;;;;;;5.85;72.38;98912.47;5128778;28;20549;-81
2023/01/16 02:48:27;;;;;;;3.65;1.55;;;;;;;5.86;72.15;98902.91;5127774;28;20126;-82
2023/01/16 02:50:57;;;;;;;0.30;0.30;;;;;;;5.84;71.86;98900.34;5139906;28;20051;-81
2023/01/16 02:53:40;;;;;;;0.50;0.50;;;;;;;5.79;72.09;98886.66;5124377;28;20182;-81
2023/01/16 02:56:14;;;;;;;0.40;0.40;;;;;;;5.89;71.70;98882.81;5111412;28;20537;-82
2023/01/16 02:58:47;;;;;;;1.20;0.77;;;;;;;5.86;71.84;98871.69;5126687;28;20101;-82
2023/01/16 03:01:18;;;;;;;0.30;0.30;;;;;;;5.89;72.03;98858.53;5123038;28;20041;-81
2023/01/16 03:03:51;;;;;;;0.35;0.35;;;;;;;5.81;71.92;98854.47;5129774;28;20472;-81
2023/01/16 03:06:33;;;;;;;0.30;0.30;;;;;;;5.73;71.72;98835.69;5111457;28;20046;-81
2023/01/16 03:09:48;;;;;;;0.30;0.30;;;;;;;5.75;72.25;98818.28;5144113;28;20123;-82
2023/01/16 03:12:34;;;;;;;;;;;;;;;5.83;71.78;98818.81;5100999;28;20427;-82
2023/01/16 03:15:16;;;;;;;0.30;0.30;;;;;;;5.79;72.03;98808.59;5130087;28;19921;-82
2023/01/16 03:18:08;;;;;;;0.30;0.30;;;;;;;5.74;72.31;98800.13;5125482;28;20043;-81
2023/01/16 03:20:54;;;;;;;0.30;0.30;;;;;;;5.74;72.07;98802.72;5130839;28;20035;-82
2023/01/16 03:23:43;;;;;;;0.30;0.30;;;;;;;5.62;71.63;98791.88;5127648;28;20031;-81
2023/01/16 03:26:38;;;;;;;0.40;0.40;;;;;;;5.68;71.83;98788.19;5145499;28;20142;-81
2023/01/16 03:29:38;;;;;;;0.30;0.30;;;;;;;5.64;71.55;98774.44;5114613;28;20038;-81
2023/01/16 03:32:36;;;;;;;0.32;0.32;;;;;;;5.62;71.79;98775.41;5113193;28;20050;-80
2023/01/16 03:35:19;;;;;;;0.30;0.30;;;;;;;5.64;71.85;98769.25;5128895;28;20741;-82
2023/01/16 03:37:54;;;;;;;0.30;0.30;;;;;;;5.64;72.00;98758.84;5132543;28;20038;-82
2023/01/16 03:40:30;;;;;;;0.30;0.30;;;;;;;5.63;71.55;98751.94;5133567;28;20031;-82
2023/01/16 03:43:08;;;;;;;0.30;0.30;;;;;;;5.66;71.81;98749.19;5136569;28;20033;-81
2023/01/16 03:46:00;;;;;;;0.30;0.30;;;;;;;5.66;72.15;98746.59;5130358;28;20714;-81
2023/01/16 03:48:49;;;;;;;0.30;0.30;;;;;;;5.53;71.40;98734.97;5111504;28;20509;-82
2023/01/16 03:51:30;;;;;;;0.30;0.30;;;;;;;5.62;71.88;98733.78;5131335;28;20042;-82
2023/01/16 03:54:16;;;;;;;0.85;0.85;;;;;;;5.61;72.05;98727.72;5148929;28;20042;-81
2023/01/16 03:56:56;;;;;;;0.30;0.30;;;;;;;5.62;71.65;98718.19;5131681;28;20171;-81
2023/01/16 03:59:27;;;;;;;0.20;0.20;;;;;;;5.62;71.56;98702.56;5116789;28;20036;-81
2023/01/16 04:02:10;;;;;;;0.30;0.30;;;;;;;5.66;72.30;98684.16;5112393;28;20113;-80
2023/01/16 04:04:47;;;;;;;0.40;0.40;;;;;;;5.61;71.72;98672.25;5112002;28;20034;-82
2023/01/16 04:07:37;;;;;;;0.35;0.35;;;;;;;5.63;72.08;98663.47;5125228;28;20047;-81
2023/01/16 04:10:15;;;;;;;0.30;0.30;;;;;;;5.58;72.07;98649.78;5127762;28;20110;-81
2023/01/16 04:12:52;;;;;;;0.30;0.30;;;;;;;5.59;72.08;98638.47;5114389;28;20058;-81
2023/01/16 04:15:26;;;;;;;0.30;0.30;;;;;;;5.58;71.66;98639.38;5112281;28;20022;-81
2023/01/16 04:17:57;;;;;;;0.40;0.40;;;;;;;5.57;72.10;98629.03;5103029;28;20118;-81
2023/01/16 04:20:29;;;;;;;0.30;0.30;;;;;;;5.53;71.31;98627.47;5122289;28;20038;-82
2023/01/16 04:23:00;;;;;;;0.30;0.30;;;;;;;5.17;72.28;98615.84;5139543;28;20050;-81
2023/01/16 04:25:30;;;;;;;0.30;0.30;;;;;;;5.32;72.08;98610.06;5132027;28;20059;-81
2023/01/16 04:28:01;;;;;;;0.30;0.30;;;;;;;5.39;71.23;98596.81;5129447;28;20709;-81
2023/01/16 04:30:31;;;;;;;0.38;0.38;;;;;;;5.40;72.10;98596.75;5147673;28;20027;-81
2023/01/16 04:33:03;;;;;;;0.30;0.30;;;;;;;5.34;72.09;98584.00;5115748;28;20027;-81
2023/01/16 04:35:34;;;;;;;0.30;0.30;;;;;;;5.47;72.36;98569.59;5118892;28;20042;-81
2023/01/16 04:38:04;;;;;;;13.68;1.95;;;;;;;5.31;72.57;98565.91;5126733;28;20027;-81
2023/01/16 04:40:35;;;;;;;0.30;0.30;;;;;;;5.23;72.41;98555.81;5109883;28;20196;-81
2023/01/16 04:43:05;;;;;;;0.40;0.40;;;;;;;5.33;72.84;98551.09;5133170;28;20034;-81
2023/01/16 04:45:36;;;;;;;0.30;0.30;;;;;;;5.18;73.82;98539.53;5131239;28;20117;-81
2023/01/16 04:48:06;;;;;;;0.38;0.38;;;;;;;5.30;72.83;98528.66;5132662;28;20609;-81
2023/01/16 04:50:37;;;;;;;0.30;0.30;;;;;;;5.12;73.61;98525.06;5128156;28;20049;-81
2023/01/16 04:53:07;;;;;;;0.35;0.35;;;;;;;5.24;72.89;98510.72;5125234;28;20437;-80
2023/01/16 04:55:38;;;;;;;0.30;0.30;;;;;;;5.12;73.52;98506.88;5129266;28;20061;-82
2023/01/16 04:58:08;;;;;;;0.63;0.63;;;;;;;5.11;73.49;98496.50;5125416;28;20027;-80
2023/01/16 05:00:38;;;;;;;0.20;0.20;;;;;;;5.20;73.59;98483.16;5125242;28;20045;-81
2023/01/16 05:03:09;;;;;;;0.30;0.30;;;;;;;5.16;73.06;98473.78;5128679;28;20043;-80
2023/01/16 05:05:40;;;;;;;0.88;0.88;;;;;;;4.93;74.81;98465.16;5126326;28;20118;-82
2023/01/16 05:08:16;;;;;;;0.30;0.30;;;;;;;5.13;74.11;98451.34;5131983;28;20457;-81
2023/01/16 05:10:46;;;;;;;0.30;0.30;;;;;;;5.15;74.33;98461.69;5127748;28;20141;-81
2023/01/16 05:13:17;;;;;;;0.50;0.50;;;;;;;5.14;74.07;98449.59;5129086;28;20121;-80
2023/01/16 05:15:47;;;;;;;0.40;0.40;;;;;;;5.24;74.03;98443.13;5122996;28;20611;-81
2023/01/16 05:18:18;;;;;;;0.30;0.30;;;;;;;5.24;73.47;98431.84;5147213;28;20672;-81
2023/01/16 05:20:49;;;;;;;0.30;0.30;;;;;;;5.22;74.15;98424.13;5119525;28;20045;-81
2023/01/16 05:23:19;;;;;;;0.30;0.30;;;;;;;5.18;74.40;98407.81;5113887;28;20027;-81
2023/01/16 05:25:50;;;;;;;0.30;0.30;;;;;;;5.13;74.55;98394.16;5107736;28;20093;-82
2023/01/16 05:28:20;;;;;;;0.45;0.45;;;;;;;5.12;75.03;98391.63;5122823;28;20120;-80
2023/01/16 05:30:51;;;;;;;0.60;0.60;;;;;;;5.02;75.34;98381.63;5139730;28;20046;-80
2023/01/16 05:33:21;;;;;;;0.50;0.50;;;;;;;5.03;75.42;98377.28;5116823;28;20093;-81
2023/01/16 05:35:53;;;;;;;0.32;0.32;;;;;;;5.10;75.47;98370.03;5126672;28;20090;-80
2023/01/16 05:38:24;;;;;;;0.30;0.30;;;;;;;5.06;75.08;98366.72;5131269;28;20066;-82
2023/01/16 05:40:54;;;;;;;0.30;0.30;;;;;;;5.12;74.46;98366.50;5117138;28;20176;-81
2023/01/16 05:43:25;;;;;;;0.30;0.30;;;;;;;5.18;74.55;98354.97;5124613;28;20486;-80
2023/01/16 05:45:56;;;;;;;0.45;0.45;;;;;;;4.98;75.71;98346.28;5129117;28;20704;-79
2023/01/16 05:48:28;;;;;;;0.30;0.30;;;;;;;4.97;75.79;98335.94;5120477;28;20107;-80
2023/01/16 05:51:01;;;;;;;0.50;0.50;;;;;;;5.04;75.56;98321.78;5118279;28;20731;-81
2023/01/16 05:53:31;;;;;;;0.50;0.50;;;;;;;5.03;75.21;98326.13;5112783;28;20028;-81
2023/01/16 05:56:12;;;;;;;0.30;0.30;;;;;;;5.12;75.35;98319.72;5135043;28;20043;-81
2023/01/16 05:58:43;;;;;;;0.32;0.32;;;;;;;5.07;75.58;98323.41;5108265;28;20043;-81
2023/01/16 06:01:13;;;;;;;0.28;0.28;;;;;;;5.14;74.99;98311.84;5116552;28;20035;-81
2023/01/16 06:03:44;;;;;;;0.30;0.30;;;;;;;5.05;75.43;98305.25;5107690;28;20034;-81
2023/01/16 06:06:14;;;;;;;0.40;0.40;;;;;;;5.13;75.51;98297.13;5136185;28;20065;-81
2023/01/16 06:08:46;;;;;;;0.30;0.30;;;;;;;4.99;76.17;98302.94;5141316;28;20038;-82
2023/01/16 06:11:17;;;;;;;0.77;0.77;;;;;;;5.00;75.61;98287.25;5117955;28;20598;-82
2023/01/16 06:13:48;;;;;;;0.30;0.30;;;;;;;5.12;75.45;98274.66;5124875;28;20026;-82
2023/01/16 06:16:18;;;;;;;0.30;0.30;;;;;;;5.25;75.21;98261.97;5119059;28;20210;-82
2023/01/16 06:18:49;;;;;;;0.52;0.52;;;;;;;5.10;74.96;98258.28;5108851;28;20066;-82
2023/01/16 06:21:19;;;;;;;0.40;0.40;;;;;;;5.11;75.56;98242.63;5114447;28;20045;-82
2023/01/16 06:23:50;;;;;;;0.60;0.60;;;;;;;5.10;75.48;98240.06;5131157;28;20042;-82
2023/01/16 06:26:20;;;;;;;0.30;0.30;;;;;;;5.16;75.48;98232.84;5131877;28;20662;-82
2023/01/16 06:28:51;;;;;;;0.30;0.30;;;;;;;5.17;75.86;98221.56;5134769;28;20070;-82
2023/01/16 06:31:22;;;;;;;0.30;0.30;;;;;;;5.07;75.81;98216.84;5124414;28;20062;-82
2023/01/16 06:33:52;;;;;;;0.35;0.35;;;;;;;5.02;75.88;98211.84;5129123;28;20051;-81
2023/01/16 06:36:23;;;;;;;0.30;0.30;;;;;;;5.17;75.54;98207.69;5113864;28;20061;-81
2023/01/16 06:38:53;;;;;;;0.30;0.30;;;;;;;5.11;75.45;98194.97;5120736;28;20033;-81
2023/01/16 06:41:24;;;;;;;0.40;0.40;;;;;;;5.20;75.13;98181.56;5114813;28;20505;-83
2023/01/16 06:43:54;;;;;;;0.50;0.50;;;;;;;5.24;74.78;98172.72;5136896;28;20038;-83
2023/01/16 06:46:25;;;;;;;0.35;0.35;;;;;;;5.22;74.71;98171.94;5120251;28;20045;-82
2023/01/16 06:48:56;;;;;;;0.30;0.30;;;;;;;5.21;74.85;98172.88;5130731;28;20077;-81
2023/01/16 06:51:26;;;;;;;0.30;0.30;;;;;;;5.18;75.55;98158.25;5099367;28;20498;-82
2023/01/16 06:53:57;;;;;;;0.30;0.30;;;;;;;5.23;74.89;98158.03;5128728;28;20114;-81
2023/01/16 06:56:27;;;;;;;0.30;0.30;;;;;;;5.28;75.03;98150.03;5121282;28;20081;-79
2023/01/16 06:58:58;;;;;;;0.30;0.30;;;;;;;5.15;74.90;98141.97;5113131;28;20042;-80
2023/01/16 07:01:28;;;;;;;0.98;0.93;;;;;;;5.17;75.33;98134.91;5112769;28;20039;-80
2023/01/16 07:03:59;;;;;;;0.40;0.40;;;;;;;5.33;74.95;98138.47;5132281;28;20042;-80
2023/01/16 07:06:29;;;;;;;0.40;0.40;;;;;;;5.20;74.93;98116.56;5133530;28;20035;-81
2023/01/16 07:09:00;;;;;;;0.50;0.50;;;;;;;5.21;75.19;98110.47;5134490;28;20026;-81
2023/01/16 07:11:30;;;;;;;0.30;0.30;;;;;;;5.22;74.65;98096.56;5120387;28;20114;-80
2023/01/16 07:22:43;;;;;;;0.28;0.28;;;;;;;5.23;75.34;98050.59;5133488;28;20208;-82
2023/01/16 07:25:24;;;;;;;1.00;0.93;;;;;;;5.26;75.20;98040.88;5136689;28;20042;-80
2023/01/16 07:27:55;;;;;;;0.40;0.40;;;;;;;5.24;76.01;98027.16;5122271;28;20034;-81
2023/01/16 07:30:25;;;;;;;0.40;0.40;;;;;;;5.17;76.07;98015.34;5110165;28;20034;-81
2023/01/16 07:32:56;;;;;;;0.40;0.40;;;;;;;5.35;76.05;98014.44;5130496;28;20050;-81
2023/01/16 07:35:27;;;;;;;0.30;0.30;;;;;;;5.33;75.98;98010.25;5118536;28;20220;-81
2023/01/16 07:37:57;;;;;;;0.30;0.30;;;;;;;5.19;76.56;97995.31;5115667;28;20075;-80
2023/01/16 07:40:28;;;;;;;0.40;0.40;;;;;;;5.25;77.22;97987.19;5116562;28;20035;-81
2023/01/16 07:42:58;;;;;;;0.30;0.30;;;;;;;5.39;76.38;97983.09;5115053;28;20042;-81
2023/01/16 07:45:29;;;;;;;0.30;0.30;;;;;;;5.33;76.85;97985.06;5120533;28;20088;-81
2023/01/16 07:48:00;;;;;;;0.30;0.30;;;;;;;5.31;77.34;97981.72;5131362;28;20039;-81
2023/01/16 07:50:31;;;;;;;0.38;0.38;;;;;;;5.30;77.64;97969.63;5118541;28;20034;-81
2023/01/16 07:53:01;;;;;;;0.30;0.30;;;;;;;5.29;77.37;97956.72;5129422;28;20486;-81
2023/01/16 07:55:32;;;;;;;0.30;0.30;;;;;;;5.23;78.78;97954.41;5134437;28;20045;-81
2023/01/16 07:58:02;;;;;;;0.30;0.30;;;;;;;5.30;77.91;97951.44;5119062;28;20728;-81
2023/01/16 08:00:33;;;;;;;0.35;0.35;;;;;;;5.28;77.82;97939.44;5109140;28;20126;-81
2023/01/16 08:03:04;;;;;;;0.30;0.30;;;;;;;5.34;78.36;97944.31;5131775;28;20026;-81
2023/01/16 08:05:34;;;;;;;0.30;0.30;;;;;;;5.33;77.76;97933.06;5113759;28;20039;-82
2023/01/16 08:08:05;;;;;;;1.17;0.85;;;;;;;5.28;77.90;97919.47;5119869;28;20031;-82
2023/01/16 08:10:36;;;;;;;0.30;0.30;;;;;;;5.25;77.44;97924.81;5132277;28;20050;-81
2023/01/16 08:13:06;;;;;;;0.30;0.30;;;;;;;5.27;77.11;97917.78;5101002;28;20030;-81
2023/01/16 08:15:37;;;;;;;0.50;0.50;;;;;;;5.31;77.15;97916.72;5109111;28;20046;-81
2023/01/16 08:18:07;;;;;;;1.70;1.60;;;;;;;5.27;77.08;97904.78;5106526;28;20047;-81
2023/01/16 08:20:37;;;;;;;0.30;0.30;;;;;;;5.21;76.71;97899.91;5136957;28;20605;-81
2023/01/16 08:23:08;;;;;;;0.30;0.30;;;;;;;5.22;76.85;97896.38;5128360;28;20389;-81
2023/01/16 08:25:38;;;;;;;0.32;0.32;;;;;;;5.19;78.04;97883.53;5112719;28;20043;-82
2023/01/16 08:28:09;;;;;;;0.60;0.60;;;;;;;5.30;77.87;97883.84;5122249;28;20134;-81
2023/01/16 08:30:39;;;;;;;0.30;0.30;;;;;;;5.19;78.01;97878.34;5102858;28;20035;-82
2023/01/16 08:33:10;;;;;;;0.30;0.30;;;;;;;5.28;78.11;97871.84;5117240;28;20034;-82
2023/01/16 08:35:40;;;;;;;0.30;0.30;;;;;;;5.28;78.14;97867.47;5136008;28;20058;-82
2023/01/16 08:38:11;;;;;;;0.40;0.40;;;;;;;5.30;78.79;97865.63;5120357;28;20045;-81
2023/01/16 08:40:41;;;;;;;0.30;0.30;;;;;;;5.20;78.92;97869.63;5094429;28;20035;-81
2023/01/16 08:51:41;;;;;;;1.35;1.23;;;;;;;5.34;78.98;97846.34;5123771;28;20077;-83
2023/01/16 08:54:12;;;;;;;0.50;0.50;;;;;;;5.28;79.21;97825.03;5132740;28;20039;-80
2023/01/16 08:56:43;;;;;;;0.60;0.60;;;;;;;5.35;79.65;97821.19;5148497;28;20071;-80
2023/01/16 08:59:14;;;;;;;0.30;0.30;;;;;;;5.28;79.47;97825.03;5152707;28;20038;-80
2023/01/16 09:01:44;;;;;;;0.40;0.40;;;;;;;5.27;79.02;97834.59;5106594;28;20065;-81
2023/01/16 09:04:15;;;;;;;0.75;0.75;;;;;;;5.26;78.85;97825.09;5114253;28;20043;-80
2023/01/16 09:06:45;;;;;;;1.05;1.05;;;;;;;5.34;79.03;97816.91;5144550;28;20037;-80
2023/01/16 09:09:16;;;;;;;0.30;0.30;;;;;;;5.30;79.38;97818.00;5144384;28;20039;-80
2023/01/16 09:14:42;;;;;;;0.30;0.30;;;;;;;5.38;78.83;97804.59;5133511;28;20057;-81
2023/01/16 09:17:13;;;;;;;1.42;1.33;;;;;;;5.32;78.67;97795.34;5104400;28;20693;-82
2023/01/16 09:19:43;;;;;;;1.75;0.95;;;;;;;5.27;78.17;97793.00;5121455;28;20125;-82
2023/01/16 09:22:14;;;;;;;1.65;1.02;;;;;;;5.21;78.67;97793.31;5121213;28;20026;-82
2023/01/16 09:24:44;;;;;;;0.30;0.30;;;;;;;5.49;77.49;97789.28;5135697;28;20077;-82
2023/01/16 09:27:18;;;;;;;0.30;0.30;;;;;;;5.29;77.75;97796.38;5124428;28;20150;-81
2023/01/16 09:29:48;;;;;;;0.65;0.65;;;;;;;5.41;77.96;97778.44;5109167;28;20031;-81
2023/01/16 09:32:19;;;;;;;1.58;1.05;;;;;;;5.25;77.60;97781.81;5141387;28;20049;-81
2023/01/16 09:34:50;;;;;;;0.77;0.77;;;;;;;5.40;77.86;97766.38;5145420;28;20031;-82
2023/01/16 09:37:21;;;;;;;0.40;0.40;;;;;;;5.41;77.21;97774.06;5149412;28;20043;-81
2023/01/16 09:39:52;;;;;;;0.40;0.40;;;;;;;5.22;77.43;97775.94;5117195;28;20035;-80
2023/01/16 09:45:34;;;;;;;0.30;0.30;;;;;;;5.40;77.53;97756.78;5121798;28;20045;-82
2023/01/16 09:48:14;;;;;;;0.30;0.30;;;;;;;5.31;77.78;97752.94;5134858;28;20043;-82
2023/01/16 09:50:53;;;;;;;0.40;0.40;;;;;;;5.37;76.83;97762.16;5137411;28;20030;-82
2023/01/16 09:59:24;;;;;;;0.30;0.30;;;;;;;5.46;76.18;97750.41;5125282;28;20064;-81
2023/01/16 10:02:20;;;;;;;0.40;0.40;;;;;;;5.51;76.47;97753.59;5115894;28;20525;-80
2023/01/16 10:04:53;;;;;;;0.40;0.40;;;;;;;5.40;76.64;97745.56;5122547;28;20038;-80
2023/01/16 10:07:42;;;;;;;1.90;1.17;;;;;;;5.48;76.90;97736.41;5121485;28;20054;-81
2023/01/16 10:10:44;;;;;;;0.30;0.30;;;;;;;5.39;76.92;97717.88;5106605;28;20569;-80
2023/01/16 10:13:33;;;;;;;2.05;1.15;;;;;;;5.41;76.50;97716.03;5108633;28;20069;-80
2023/01/16 10:16:42;;;;;;;1.23;0.57;;;;;;;5.43;76.03;97709.81;5116088;28;20148;-81
2023/01/16 10:19:15;;;;;;;0.93;0.93;;;;;;;5.56;76.13;97699.59;5137678;28;20042;-82
2023/01/16 10:21:46;;;;;;;;;;;;;;;5.49;76.12;97695.66;5131289;28;20058;-82
2023/01/16 10:24:49;;;;;;;0.30;0.30;;;;;;;5.56;76.11;97691.78;5138467;28;19933;-82
2023/01/16 10:27:35;;;;;;;0.65;0.65;;;;;;;5.46;75.62;97701.00;5082953;28;20053;-82
2023/01/16 10:30:19;;;;;;;0.30;0.30;;;;;;;5.56;75.63;97689.19;5112897;28;20041;-82
2023/01/16 10:33:10;;;;;;;0.35;0.35;;;;;;;5.56;75.43;97699.59;5114828;28;20043;-82
2023/01/16 10:35:44;;;;;;;1.63;1.00;;;;;;;5.54;74.84;97679.81;5118612;28;20065;-82
2023/01/16 10:50:24;;;;;;;0.30;0.30;;;;;;;5.84;74.26;97653.81;5129605;28;20041;-82
2023/01/16 10:52:58;;;;;;;0.65;0.65;;;;;;;5.78;74.85;97643.75;5121809;28;20030;-82
2023/01/16 10:55:30;;;;;;;0.40;0.40;;;;;;;5.86;73.88;97635.53;5137866;28;20043;-82
2023/01/16 10:58:32;;;;;;;0.50;0.50;;;;;;;5.96;74.59;97627.09;5105469;28;20026;-82
2023/01/16 11:01:19;;;;;;;0.30;0.30;;;;;;;6.02;74.38;97622.47;5123626;28;20094;-82
2023/01/16 11:03:53;;;;;;;0.20;0.20;;;;;;;5.97;74.46;97620.09;5131097;28;20035;-82
2023/01/16 11:06:30;;;;;;;0.50;0.50;;;;;;;5.94;74.28;97602.91;5112440;28;20043;-82
2023/01/16 11:09:19;;;;;;;0.30;0.30;;;;;;;6.05;74.29;97598.88;5133049;28;20034;-82
2023/01/16 11:20:33;;;;;;;0.30;0.30;;;;;;;6.17;72.99;97576.50;5124833;28;20122;-82
2023/01/16 11:23:16;;;;;;;0.30;0.30;;;;;;;6.16;73.06;97567.84;5113925;28;20065;-82
2023/01/16 11:25:49;;;;;;;0.30;0.30;;;;;;;6.04;72.81;97558.16;5119342;28;20035;-82
2023/01/16 11:28:26;;;;;;;0.60;0.60;;;;;;;6.22;73.78;97546.66;5120859;28;20098;-81
2023/01/16 11:31:00;;;;;;;0.75;0.75;;;;;;;6.10;73.79;97542.19;5127463;28;20043;-81
2023/01/16 11:33:40;;;;;;;0.30;0.30;;;;;;;6.25;73.31;97541.25;5129500;28;20034;-82
2023/01/16 11:36:15;;;;;;;0.30;0.30;;;;;;;6.25;73.02;97525.63;5130765;28;20188;-82
2023/01/16 11:38:47;;;;;;;0.30;0.30;;;;;;;6.14;72.50;97515.06;5119822;28;20046;-81
2023/01/16 11:41:23;;;;;;;0.30;0.30;;;;;;;6.20;72.64;97530.28;5097554;28;20043;-82
2023/01/16 11:47:17;;;;;;;0.30;0.30;;;;;;;6.35;72.90;97499.03;5109134;28;20055;-82
2023/01/16 11:49:51;;;;;;;0.90;0.90;;;;;;;6.38;73.23;97494.47;5115466;28;20055;-81
2023/01/16 11:52:29;;;;;;;0.30;0.30;;;;;;;6.32;73.17;97500.06;5096547;28;20038;-82
2023/01/16 11:55:02;;;;;;;0.55;0.55;;;;;;;6.39;73.23;97496.16;5121902;28;20054;-82
2023/01/16 11:57:44;;;;;;;0.40;0.40;;;;;;;6.47;73.10;97487.88;5099680;28;20627;-82
2023/01/16 12:00:39;;;;;;;0.90;0.75;;;;;;;6.32;72.11;97483.63;5139522;28;20042;-81
2023/01/16 12:03:24;;;;;;;0.30;0.30;;;;;;;6.18;73.24;97480.06;5100792;29;20078;-82
2023/01/16 12:06:11;;;;;;;0.32;0.32;;;;;;;6.30;73.24;97481.94;5097028;28;20140;-81
2023/01/16 12:08:51;;;;;;;0.20;0.20;;;;;;;6.34;73.00;97468.72;5112494;28;20024;-80
2023/01/16 12:11:43;;;;;;;0.30;0.30;;;;;;;6.17;73.85;97460.19;5102986;29;20046;-80
2023/01/16 12:14:20;;;;;;;0.30;0.30;;;;;;;6.30;74.26;97449.84;5123564;28;20027;-80
2023/01/16 12:17:14;;;;;;;0.30;0.30;;;;;;;6.22;73.93;97449.47;5109670;29;20040;-81
2023/01/16 12:20:13;;;;;;;0.30;0.30;;;;;;;6.33;74.44;97433.19;5135257;28;20031;-81
2023/01/16 12:23:02;;;;;;;0.30;0.30;;;;;;;6.22;74.86;97428.66;5129645;28;20043;-80
2023/01/16 12:25:41;;;;;;;0.40;0.40;;;;;;;6.11;74.93;97418.91;5130692;28;20034;-82
2023/01/16 12:28:31;;;;;;;0.30;0.30;;;;;;;6.17;74.50;97421.13;5117009;28;20070;-81
2023/01/16 12:31:35;;;;;;;0.38;0.38;;;;;;;6.20;75.42;97404.50;5136169;28;20686;-84
2023/01/16 12:34:06;;;;;;;0.50;0.50;;;;;;;6.12;75.79;97405.78;5104120;29;20403;-83
2023/01/16 12:37:00;;;;;;;0.30;0.30;;;;;;;6.11;75.82;97398.09;5100240;28;20035;-84
2023/01/16 12:39:42;;;;;;;0.88;0.88;;;;;;;6.05;76.47;97380.25;5120050;28;20700;-82
2023/01/16 12:45:28;;;;;;;0.30;0.30;;;;;;;6.05;76.84;97356.84;5133826;28;20041;-82
2023/01/16 12:48:27;;;;;;;0.30;0.30;;;;;;;5.87;76.84;97354.41;5121815;28;20047;-83
2023/01/16 12:51:22;;;;;;;2.08;1.60;;;;;;;6.03;76.86;97356.94;5104820;28;20039;-82
2023/01/16 12:54:34;;;;;;;0.65;0.65;;;;;;;6.11;76.09;97344.28;5106073;28;20078;-82
2023/01/16 12:57:14;;;;;;;0.30;0.30;;;;;;;6.19;76.25;97348.16;5123894;28;20109;-81
2023/01/16 12:59:51;;;;;;;0.30;0.30;;;;;;;6.20;76.01;97324.63;5118880;28;20621;-84
2023/01/16 13:02:47;;;;;;;0.20;0.20;;;;;;;6.16;76.56;97323.13;5133199;28;20035;-82
2023/01/16 13:05:23;;;;;;;1.80;0.68;;;;;;;6.12;76.40;97319.06;5118200;28;20036;-81
2023/01/16 13:08:08;;;;;;;0.40;0.40;;;;;;;6.09;76.63;97324.47;5136918;28;20446;-80
2023/01/16 13:13:37;;;;;;;0.30;0.30;;;;;;;6.18;76.44;97303.06;5114310;28;20117;-82
2023/01/16 13:16:17;;;;;;;0.30;0.30;;;;;;;6.12;77.53;97311.25;5120686;28;20326;-80
2023/01/16 13:18:56;;;;;;;0.30;0.30;;;;;;;6.09;78.08;97307.09;5116381;28;20047;-82
2023/01/16 13:21:30;;;;;;;0.30;0.30;;;;;;;6.14;77.49;97291.19;5103834;29;20023;-81
2023/01/16 13:24:11;;;;;;;0.55;0.55;;;;;;;6.25;77.26;97280.91;5106749;29;20035;-83
2023/01/16 13:26:46;;;;;;;0.40;0.40;;;;;;;6.35;76.76;97280.31;5121323;28;20696;-80